La rose des vents
Donnes mto: Semaine 05/06/23 - 11/06/23 (S 23)
Date Horaire Temp. E. Hum. E. P.atmo. Pluie Vent 1mn Direction Ensoleilleme Ev.Tr. Solaire P. de rose Temp au vent Rafales
05/06/2023 00:00 18,0 C 83 % 1015,1 hPa 0,0 mm 0,0 km/h (0 Bft) N 0,00 h 0,025 mm 0 W/m 15,2 C 18,0 C 0,0 km/h (0 Bft)
05/06/2023 01:00 17,9 C 84 % 1014,8 hPa 0,0 mm 0,0 km/h (0 Bft) N 0,00 h 0,025 mm 0 W/m 15,1 C 17,9 C 0,0 km/h (0 Bft)
05/06/2023 02:00 17,6 C 83 % 1014,5 hPa 0,0 mm 0,0 km/h (0 Bft) N 0,00 h 0,025 mm 0 W/m 14,6 C 17,6 C 0,0 km/h (0 Bft)
05/06/2023 03:00 17,5 C 84 % 1014,5 hPa 0,0 mm 0,0 km/h (0 Bft) N 0,00 h 0,025 mm 0 W/m 14,7 C 17,5 C 0,0 km/h (0 Bft)
05/06/2023 04:00 17,2 C 85 % 1014,2 hPa 0,0 mm 0,0 km/h (0 Bft) N 0,00 h 0,025 mm 0 W/m 14,7 C 17,2 C 0,0 km/h (0 Bft)
05/06/2023 05:00 17,3 C 86 % 1014,1 hPa 0,0 mm 0,0 km/h (0 Bft) N 0,00 h 0,025 mm 5 W/m 15,0 C 17,3 C 0,0 km/h (0 Bft)
05/06/2023 06:00 17,1 C 84 % 1014,4 hPa 0,0 mm 0,0 km/h (0 Bft) N 0,00 h 0,000 mm 17 W/m 14,5 C 17,1 C 0,0 km/h (0 Bft)
05/06/2023 07:00 17,9 C 82 % 1014,6 hPa 0,0 mm 0,0 km/h (0 Bft) N 0,00 h 0,000 mm 104 W/m 14,8 C 17,9 C 0,0 km/h (0 Bft)
05/06/2023 08:00 19,3 C 81 % 1014,5 hPa 0,0 mm 0,0 km/h (0 Bft) N 0,00 h 0,051 mm 161 W/m 16,0 C 19,3 C 0,0 km/h (0 Bft)
05/06/2023 09:00 20,2 C 77 % 1014,5 hPa 0,0 mm 0,2 km/h (0 Bft) E 0,00 h 0,102 mm 155 W/m 16,1 C 20,2 C 0,9 km/h (0 Bft)
05/06/2023 10:00 20,3 C 78 % 1014,5 hPa 0,0 mm 0,5 km/h (0 Bft) E 0,00 h 0,102 mm 225 W/m 16,3 C 20,3 C 2,4 km/h (1 Bft)
05/06/2023 11:00 21,1 C 75 % 1014,3 hPa 0,0 mm 1,3 km/h (1 Bft) E 0,22 h 0,127 mm 405 W/m 16,4 C 21,1 C 4,0 km/h (1 Bft)
05/06/2023 12:00 22,2 C 73 % 1014,2 hPa 0,0 mm 2,5 km/h (1 Bft) E 0,33 h 0,254 mm 475 W/m 17,1 C 22,2 C 6,6 km/h (2 Bft)
05/06/2023 13:00 22,9 C 71 % 1014,2 hPa 0,0 mm 3,3 km/h (1 Bft) E 0,65 h 0,305 mm 672 W/m 17,4 C 22,9 C 8,7 km/h (2 Bft)
05/06/2023 14:00 24,1 C 67 % 1013,9 hPa 0,0 mm 4,1 km/h (1 Bft) E 0,55 h 0,432 mm 643 W/m 17,4 C 24,1 C 9,8 km/h (2 Bft)
05/06/2023 15:00 22,5 C 72 % 1013,7 hPa 0,0 mm 2,3 km/h (1 Bft) E 0,10 h 0,457 mm 253 W/m 17,1 C 22,5 C 7,2 km/h (2 Bft)
05/06/2023 16:00 20,3 C 80 % 1014,3 hPa 0,0 mm 0,0 km/h (0 Bft) N 0,00 h 0,152 mm 37 W/m 16,7 C 20,3 C 0,4 km/h (0 Bft)
05/06/2023 17:00 19,1 C 86 % 1014,3 hPa 0,0 mm 0,1 km/h (0 Bft) S-SO 0,00 h 0,025 mm 59 W/m 16,8 C 19,1 C 0,9 km/h (0 Bft)
05/06/2023 18:00 18,5 C 91 % 1013,9 hPa 0,2 mm 0,0 km/h (0 Bft) O-NO 0,00 h 0,025 mm 107 W/m 17,0 C 18,5 C 0,3 km/h (0 Bft)
05/06/2023 19:00 18,7 C 92 % 1013,9 hPa 0,0 mm 0,0 km/h (0 Bft) N 0,00 h 0,051 mm 71 W/m 17,3 C 18,7 C 0,0 km/h (0 Bft)
05/06/2023 20:00 18,4 C 91 % 1014,2 hPa 0,0 mm 0,0 km/h (0 Bft) N 0,00 h 0,051 mm 23 W/m 16,9 C 18,4 C 0,0 km/h (0 Bft)
05/06/2023 21:00 17,9 C 93 % 1014,1 hPa 0,0 mm 0,0 km/h (0 Bft) N 0,00 h 0,025 mm 0 W/m 16,8 C 17,9 C 0,0 km/h (0 Bft)
05/06/2023 22:00 17,3 C 94 % 1014,4 hPa 0,0 mm 0,0 km/h (0 Bft) N 0,00 h 0,000 mm 0 W/m 16,3 C 17,3 C 0,0 km/h (0 Bft)
05/06/2023 23:00 16,8 C 94 % 1014,7 hPa 0,0 mm 0,0 km/h (0 Bft) N 0,00 h 0,000 mm 0 W/m 15,9 C 16,8 C 0,0 km/h (0 Bft)
06/06/2023 00:00 16,4 C 95 % 1014,7 hPa 0,0 mm 0,0 km/h (0 Bft) N 0,00 h 0,000 mm 0 W/m 15,6 C 16,4 C 0,0 km/h (0 Bft)
06/06/2023 01:00 16,0 C 95 % 1014,7 hPa 0,0 mm 0,0 km/h (0 Bft) N 0,00 h 0,000 mm 0 W/m 15,2 C 16,0 C 0,0 km/h (0 Bft)
06/06/2023 02:00 15,6 C 95 % 1014,5 hPa 0,0 mm 0,0 km/h (0 Bft) N 0,00 h 0,000 mm 0 W/m 14,8 C 15,6 C 0,0 km/h (0 Bft)
06/06/2023 03:00 15,4 C 96 % 1014,3 hPa 0,0 mm 0,0 km/h (0 Bft) N 0,00 h 0,000 mm 0 W/m 14,7 C 15,4 C 0,0 km/h (0 Bft)
06/06/2023 04:00 14,9 C 95 % 1014,4 hPa 0,0 mm 0,0 km/h (0 Bft) N 0,00 h 0,000 mm 0 W/m 14,1 C 14,9 C 0,0 km/h (0 Bft)
06/06/2023 05:00 14,4 C 94 % 1014,5 hPa 0,0 mm 0,0 km/h (0 Bft) N 0,00 h 0,000 mm 5 W/m 13,5 C 14,4 C 0,0 km/h (0 Bft)
06/06/2023 06:00 14,5 C 94 % 1014,8 hPa 0,0 mm 0,0 km/h (0 Bft) N 0,00 h 0,000 mm 19 W/m 13,6 C 14,5 C 0,0 km/h (0 Bft)
06/06/2023 07:00 15,5 C 94 % 1014,9 hPa 0,0 mm 0,0 km/h (0 Bft) N 0,00 h 0,000 mm 37 W/m 14,5 C 15,5 C 0,0 km/h (0 Bft)
06/06/2023 08:00 17,5 C 89 % 1014,9 hPa 0,0 mm 0,0 km/h (0 Bft) N 0,17 h 0,025 mm 132 W/m 15,7 C 17,5 C 0,0 km/h (0 Bft)
06/06/2023 09:00 21,5 C 75 % 1014,7 hPa 0,0 mm 0,2 km/h (0 Bft) S-SO 1,00 h 0,076 mm 515 W/m 16,8 C 21,5 C 0,7 km/h (0 Bft)
06/06/2023 10:00 24,9 C 63 % 1014,4 hPa 0,0 mm 1,5 km/h (1 Bft) E 1,00 h 0,305 mm 671 W/m 17,3 C 24,9 C 4,5 km/h (1 Bft)
06/06/2023 11:00 26,1 C 61 % 1014,4 hPa 0,0 mm 4,0 km/h (1 Bft) S 1,00 h 0,432 mm 806 W/m 17,8 C 26,1 C 9,6 km/h (2 Bft)
06/06/2023 12:00 26,7 C 57 % 1014,4 hPa 0,0 mm 4,8 km/h (1 Bft) S 1,00 h 0,533 mm 878 W/m 17,5 C 26,7 C 10,2 km/h (2 Bft)
06/06/2023 13:00 26,7 C 56 % 1014,4 hPa 0,0 mm 5,7 km/h (1 Bft) S 1,00 h 0,584 mm 902 W/m 17,1 C 26,7 C 11,6 km/h (2 Bft)
06/06/2023 14:00 26,7 C 59 % 1014,3 hPa 0,0 mm 4,5 km/h (1 Bft) S 1,00 h 0,610 mm 911 W/m 18,0 C 26,7 C 9,8 km/h (2 Bft)
06/06/2023 15:00 26,3 C 65 % 1014,2 hPa 0,0 mm 2,6 km/h (1 Bft) E 0,55 h 0,610 mm 648 W/m 19,0 C 26,3 C 7,3 km/h (2 Bft)
06/06/2023 16:00 24,7 C 69 % 1014,2 hPa 0,0 mm 2,6 km/h (1 Bft) E 0,43 h 0,432 mm 437 W/m 18,7 C 24,7 C 7,1 km/h (2 Bft)
06/06/2023 17:00 23,6 C 69 % 1014,4 hPa 0,0 mm 1,0 km/h (0 Bft) E 0,05 h 0,279 mm 183 W/m 17,6 C 23,6 C 3,3 km/h (1 Bft)
06/06/2023 18:00 22,9 C 72 % 1014,4 hPa 0,0 mm 0,2 km/h (0 Bft) S-SO 0,13 h 0,127 mm 152 W/m 17,7 C 22,9 C 1,1 km/h (1 Bft)
06/06/2023 19:00 22,2 C 74 % 1014,5 hPa 0,0 mm 0,0 km/h (0 Bft) N 0,00 h 0,102 mm 49 W/m 17,3 C 22,2 C 0,1 km/h (0 Bft)
06/06/2023 20:00 21,1 C 77 % 1014,6 hPa 0,0 mm 0,0 km/h (0 Bft) N 0,00 h 0,025 mm 19 W/m 17,0 C 21,1 C 0,0 km/h (0 Bft)
06/06/2023 21:00 20,2 C 82 % 1014,6 hPa 0,0 mm 0,0 km/h (0 Bft) N 0,00 h 0,025 mm 0 W/m 17,0 C 20,2 C 0,0 km/h (0 Bft)
06/06/2023 22:00 19,6 C 86 % 1015,0 hPa 0,0 mm 0,0 km/h (0 Bft) N 0,00 h 0,000 mm 0 W/m 17,2 C 19,6 C 0,0 km/h (0 Bft)
06/06/2023 23:00 19,0 C 89 % 1014,9 hPa 0,0 mm 0,0 km/h (0 Bft) N 0,00 h 0,025 mm 0 W/m 17,2 C 19,0 C 0,0 km/h (0 Bft)
07/06/2023 00:00 18,4 C 91 % 1014,7 hPa 0,0 mm 0,0 km/h (0 Bft) N 0,00 h 0,000 mm 0 W/m 16,9 C 18,4 C 0,0 km/h (0 Bft)
07/06/2023 01:00 17,7 C 92 % 1014,7 hPa 0,0 mm 0,0 km/h (0 Bft) N 0,00 h 0,000 mm 0 W/m 16,3 C 17,7 C 0,0 km/h (0 Bft)
07/06/2023 02:00 17,0 C 91 % 1014,6 hPa 0,0 mm 0,0 km/h (0 Bft) N 0,00 h 0,000 mm 0 W/m 15,5 C 17,0 C 0,0 km/h (0 Bft)
07/06/2023 03:00 16,8 C 90 % 1014,9 hPa 0,0 mm 0,0 km/h (0 Bft) N 0,00 h 0,000 mm 0 W/m 15,1 C 16,8 C 0,0 km/h (0 Bft)
07/06/2023 04:00 17,1 C 90 % 1014,8 hPa 0,0 mm 0,0 km/h (0 Bft) N 0,00 h 0,000 mm 0 W/m 15,4 C 17,1 C 0,0 km/h (0 Bft)
07/06/2023 05:00 17,2 C 89 % 1014,7 hPa 0,0 mm 0,0 km/h (0 Bft) N 0,00 h 0,000 mm 5 W/m 15,3 C 17,2 C 0,0 km/h (0 Bft)
07/06/2023 06:00 17,0 C 90 % 1014,7 hPa 0,0 mm 0,0 km/h (0 Bft) N 0,00 h 0,000 mm 26 W/m 15,3 C 17,0 C 0,0 km/h (0 Bft)
07/06/2023 07:00 17,8 C 88 % 1014,9 hPa 0,0 mm 0,0 km/h (0 Bft) N 0,00 h 0,025 mm 88 W/m 15,8 C 17,8 C 0,0 km/h (0 Bft)
07/06/2023 08:00 19,7 C 82 % 1015,6 hPa 0,0 mm 0,0 km/h (0 Bft) S-SO 0,00 h 0,051 mm 154 W/m 16,5 C 19,7 C 0,1 km/h (0 Bft)
07/06/2023 09:00 21,4 C 78 % 1016,1 hPa 0,0 mm 0,0 km/h (0 Bft) N 0,00 h 0,102 mm 199 W/m 17,4 C 21,4 C 0,1 km/h (0 Bft)
07/06/2023 10:00 22,6 C 74 % 1016,2 hPa 0,0 mm 0,2 km/h (0 Bft) S-SO 0,15 h 0,127 mm 290 W/m 17,7 C 22,6 C 1,1 km/h (1 Bft)
07/06/2023 11:00 24,7 C 70 % 1016,0 hPa 0,0 mm 1,0 km/h (0 Bft) E 0,48 h 0,178 mm 546 W/m 18,8 C 24,7 C 4,6 km/h (1 Bft)
07/06/2023 12:00 25,4 C 67 % 1015,7 hPa 0,0 mm 4,1 km/h (1 Bft) E 0,97 h 0,381 mm 869 W/m 18,8 C 25,4 C 10,6 km/h (2 Bft)
07/06/2023 13:00 25,5 C 68 % 1015,8 hPa 0,0 mm 4,5 km/h (1 Bft) E 0,93 h 0,559 mm 984 W/m 19,2 C 25,5 C 10,2 km/h (2 Bft)
07/06/2023 14:00 25,5 C 68 % 1015,6 hPa 0,0 mm 3,7 km/h (1 Bft) E 0,78 h 0,610 mm 842 W/m 19,1 C 25,5 C 9,3 km/h (2 Bft)
07/06/2023 15:00 24,7 C 69 % 1015,3 hPa 0,0 mm 1,5 km/h (1 Bft) E 0,33 h 0,559 mm 465 W/m 18,7 C 24,7 C 4,7 km/h (1 Bft)
07/06/2023 16:00 24,8 C 67 % 1014,7 hPa 0,0 mm 0,4 km/h (0 Bft) E 0,23 h 0,279 mm 391 W/m 18,1 C 24,8 C 1,4 km/h (1 Bft)
07/06/2023 17:00 24,1 C 71 % 1014,3 hPa 0,0 mm 1,5 km/h (1 Bft) E 0,00 h 0,254 mm 241 W/m 18,5 C 24,1 C 4,7 km/h (1 Bft)
07/06/2023 18:00 23,2 C 74 % 1014,2 hPa 0,0 mm 1,1 km/h (1 Bft) S-SO 0,18 h 0,152 mm 199 W/m 18,4 C 23,2 C 3,6 km/h (1 Bft)
07/06/2023 19:00 22,6 C 77 % 1014,1 hPa 0,0 mm 0,0 km/h (0 Bft) S-SO 0,00 h 0,127 mm 82 W/m 18,4 C 22,6 C 0,2 km/h (0 Bft)
07/06/2023 20:00 21,7 C 81 % 1014,2 hPa 0,0 mm 0,0 km/h (0 Bft) N 0,00 h 0,051 mm 18 W/m 18,3 C 21,7 C 0,0 km/h (0 Bft)
07/06/2023 21:00 20,4 C 85 % 1014,4 hPa 0,0 mm 0,0 km/h (0 Bft) N 0,00 h 0,025 mm 5 W/m 17,8 C 20,4 C 0,0 km/h (0 Bft)
07/06/2023 22:00 19,4 C 88 % 1014,6 hPa 0,0 mm 0,0 km/h (0 Bft) N 0,00 h 0,000 mm 0 W/m 17,3 C 19,4 C 0,0 km/h (0 Bft)
07/06/2023 23:00 18,8 C 91 % 1014,6 hPa 0,0 mm 0,0 km/h (0 Bft) N 0,00 h 0,000 mm 0 W/m 17,2 C 18,8 C 0,0 km/h (0 Bft)
08/06/2023 00:00 18,5 C 93 % 1014,6 hPa 0,0 mm 0,0 km/h (0 Bft) N 0,00 h 0,000 mm 0 W/m 17,2 C 18,5 C 0,0 km/h (0 Bft)
08/06/2023 01:00 18,1 C 93 % 1014,6 hPa 0,0 mm 0,0 km/h (0 Bft) N 0,00 h 0,000 mm 0 W/m 16,9 C 18,1 C 0,0 km/h (0 Bft)
08/06/2023 02:00 17,5 C 93 % 1014,3 hPa 0,0 mm 0,0 km/h (0 Bft) N 0,00 h 0,000 mm 0 W/m 16,3 C 17,5 C 0,0 km/h (0 Bft)
08/06/2023 03:00 17,1 C 94 % 1013,9 hPa 0,0 mm 0,0 km/h (0 Bft) N 0,00 h 0,000 mm 0 W/m 16,1 C 17,1 C 0,0 km/h (0 Bft)
08/06/2023 04:00 16,9 C 95 % 1013,6 hPa 0,0 mm 0,0 km/h (0 Bft) N 0,00 h 0,000 mm 0 W/m 16,0 C 16,9 C 0,0 km/h (0 Bft)
08/06/2023 05:00 16,8 C 94 % 1013,6 hPa 0,0 mm 0,0 km/h (0 Bft) N 0,00 h 0,000 mm 5 W/m 15,9 C 16,8 C 0,0 km/h (0 Bft)
08/06/2023 06:00 16,9 C 93 % 1013,6 hPa 0,0 mm 0,0 km/h (0 Bft) N 0,00 h 0,000 mm 31 W/m 15,7 C 16,9 C 0,0 km/h (0 Bft)
08/06/2023 07:00 17,5 C 92 % 1014,1 hPa 0,0 mm 0,0 km/h (0 Bft) N 0,02 h 0,025 mm 86 W/m 16,2 C 17,5 C 0,0 km/h (0 Bft)
08/06/2023 08:00 19,7 C 84 % 1014,1 hPa 0,0 mm 0,0 km/h (0 Bft) S-SO 0,18 h 0,051 mm 193 W/m 16,8 C 19,7 C 0,3 km/h (0 Bft)
08/06/2023 09:00 22,3 C 72 % 1014,1 hPa 0,0 mm 0,5 km/h (0 Bft) S-SE 0,85 h 0,127 mm 417 W/m 17,1 C 22,3 C 1,8 km/h (1 Bft)
08/06/2023 10:00 24,6 C 67 % 1013,8 hPa 0,0 mm 1,5 km/h (1 Bft) SE 1,00 h 0,254 mm 656 W/m 18,1 C 24,6 C 4,2 km/h (1 Bft)
08/06/2023 11:00 25,9 C 66 % 1013,7 hPa 0,0 mm 4,1 km/h (1 Bft) E 1,00 h 0,432 mm 810 W/m 19,2 C 25,9 C 9,6 km/h (2 Bft)
08/06/2023 12:00 25,6 C 67 % 1013,7 hPa 0,0 mm 4,8 km/h (1 Bft) E 1,00 h 0,533 mm 897 W/m 18,9 C 25,6 C 10,6 km/h (2 Bft)
08/06/2023 13:00 26,1 C 65 % 1013,5 hPa 0,0 mm 4,2 km/h (1 Bft) E 0,90 h 0,584 mm 932 W/m 19,1 C 26,1 C 9,1 km/h (2 Bft)
08/06/2023 14:00 25,4 C 67 % 1013,3 hPa 0,0 mm 4,5 km/h (1 Bft) E 0,67 h 0,584 mm 717 W/m 18,9 C 25,4 C 9,7 km/h (2 Bft)
08/06/2023 15:00 24,7 C 68 % 1013,1 hPa 0,0 mm 2,7 km/h (1 Bft) E 0,30 h 0,483 mm 458 W/m 18,3 C 24,7 C 7,1 km/h (2 Bft)
08/06/2023 16:00 24,3 C 68 % 1012,8 hPa 0,0 mm 1,5 km/h (1 Bft) E 0,18 h 0,305 mm 303 W/m 17,9 C 24,3 C 4,7 km/h (1 Bft)
08/06/2023 17:00 23,9 C 73 % 1012,5 hPa 0,0 mm 1,5 km/h (1 Bft) E 0,82 h 0,203 mm 445 W/m 18,7 C 23,9 C 4,3 km/h (1 Bft)
08/06/2023 18:00 24,6 C 69 % 1011,8 hPa 0,0 mm 0,5 km/h (0 Bft) E 0,77 h 0,279 mm 300 W/m 18,5 C 24,6 C 1,7 km/h (1 Bft)
08/06/2023 19:00 23,4 C 73 % 1011,4 hPa 0,0 mm 0,0 km/h (0 Bft) E 0,15 h 0,203 mm 98 W/m 18,1 C 23,4 C 0,1 km/h (0 Bft)
08/06/2023 20:00 21,8 C 81 % 1011,3 hPa 0,0 mm 0,0 km/h (0 Bft) N 0,00 h 0,076 mm 31 W/m 18,5 C 21,8 C 0,0 km/h (0 Bft)
08/06/2023 21:00 20,6 C 87 % 1011,4 hPa 0,0 mm 0,0 km/h (0 Bft) N 0,00 h 0,025 mm 5 W/m 18,3 C 20,6 C 0,0 km/h (0 Bft)
08/06/2023 22:00 19,8 C 90 % 1011,6 hPa 0,0 mm 0,0 km/h (0 Bft) N 0,00 h 0,000 mm 0 W/m 18,1 C 19,8 C 0,0 km/h (0 Bft)
08/06/2023 23:00 19,1 C 92 % 1011,8 hPa 0,0 mm 0,0 km/h (0 Bft) N 0,00 h 0,000 mm 0 W/m 17,8 C 19,1 C 0,0 km/h (0 Bft)
09/06/2023 00:00 18,9 C 93 % 1012,1 hPa 0,0 mm 0,0 km/h (0 Bft) N 0,00 h 0,000 mm 0 W/m 17,8 C 18,9 C 0,0 km/h (0 Bft)
09/06/2023 01:00 18,6 C 94 % 1011,9 hPa 0,0 mm 0,0 km/h (0 Bft) N 0,00 h 0,000 mm 0 W/m 17,5 C 18,6 C 0,0 km/h (0 Bft)
09/06/2023 02:00 18,4 C 94 % 1011,5 hPa 0,0 mm 0,0 km/h (0 Bft) N 0,00 h 0,000 mm 0 W/m 17,3 C 18,4 C 0,0 km/h (0 Bft)
09/06/2023 03:00 17,8 C 93 % 1011,2 hPa 0,0 mm 0,0 km/h (0 Bft) N 0,00 h 0,000 mm 0 W/m 16,7 C 17,8 C 0,0 km/h (0 Bft)
09/06/2023 04:00 17,8 C 94 % 1011,3 hPa 0,0 mm 0,0 km/h (0 Bft) N 0,00 h 0,000 mm 0 W/m 16,8 C 17,8 C 0,0 km/h (0 Bft)
09/06/2023 05:00 17,9 C 94 % 1011,2 hPa 0,0 mm 0,0 km/h (0 Bft) N 0,00 h 0,000 mm 5 W/m 17,0 C 17,9 C 0,0 km/h (0 Bft)
09/06/2023 06:00 18,2 C 94 % 1011,6 hPa 0,0 mm 0,0 km/h (0 Bft) N 0,00 h 0,000 mm 24 W/m 17,2 C 18,2 C 0,0 km/h (0 Bft)
09/06/2023 07:00 18,9 C 92 % 1011,5 hPa 0,0 mm 0,0 km/h (0 Bft) N 0,00 h 0,025 mm 96 W/m 17,5 C 18,9 C 0,0 km/h (0 Bft)
09/06/2023 08:00 20,1 C 84 % 1012,1 hPa 0,0 mm 0,0 km/h (0 Bft) N 0,00 h 0,051 mm 110 W/m 17,4 C 20,1 C 0,0 km/h (0 Bft)
09/06/2023 09:00 21,5 C 80 % 1012,3 hPa 0,0 mm 0,1 km/h (0 Bft) NE 0,00 h 0,076 mm 243 W/m 18,0 C 21,5 C 0,3 km/h (0 Bft)
09/06/2023 10:00 23,4 C 72 % 1012,3 hPa 0,0 mm 0,2 km/h (0 Bft) E 0,45 h 0,152 mm 420 W/m 18,0 C 23,4 C 1,3 km/h (1 Bft)
09/06/2023 11:00 24,9 C 64 % 1012,1 hPa 0,0 mm 1,1 km/h (1 Bft) E 0,35 h 0,254 mm 413 W/m 17,5 C 24,9 C 4,0 km/h (1 Bft)
09/06/2023 12:00 23,8 C 69 % 1012,0 hPa 0,0 mm 1,9 km/h (1 Bft) E 0,05 h 0,254 mm 333 W/m 17,7 C 23,8 C 5,2 km/h (1 Bft)
09/06/2023 13:00 24,1 C 72 % 1012,1 hPa 0,0 mm 1,0 km/h (0 Bft) E 0,00 h 0,229 mm 353 W/m 18,7 C 24,1 C 3,5 km/h (1 Bft)
09/06/2023 14:00 24,1 C 74 % 1012,0 hPa 0,0 mm 0,7 km/h (0 Bft) E 0,02 h 0,229 mm 351 W/m 19,2 C 24,1 C 3,2 km/h (1 Bft)
09/06/2023 15:00 23,9 C 76 % 1011,9 hPa 0,0 mm 0,8 km/h (0 Bft) E-SE 0,00 h 0,229 mm 254 W/m 19,4 C 23,9 C 3,3 km/h (1 Bft)
09/06/2023 16:00 22,9 C 80 % 1011,8 hPa 0,0 mm 0,1 km/h (0 Bft) E-SE 0,00 h 0,152 mm 185 W/m 19,2 C 22,9 C 1,2 km/h (1 Bft)
09/06/2023 17:00 22,7 C 81 % 1011,3 hPa 0,0 mm 0,0 km/h (0 Bft) E-SE 0,00 h 0,127 mm 177 W/m 19,2 C 22,7 C 0,3 km/h (0 Bft)
09/06/2023 18:00 23,0 C 80 % 1010,9 hPa 0,0 mm 0,0 km/h (0 Bft) N 0,05 h 0,102 mm 176 W/m 19,3 C 23,0 C 0,3 km/h (0 Bft)
09/06/2023 19:00 22,8 C 81 % 1011,2 hPa 0,0 mm 0,0 km/h (0 Bft) N 0,73 h 0,102 mm 175 W/m 19,4 C 22,8 C 0,4 km/h (0 Bft)
09/06/2023 20:00 22,1 C 84 % 1011,5 hPa 0,0 mm 0,0 km/h (0 Bft) N 0,12 h 0,102 mm 45 W/m 19,3 C 22,1 C 0,1 km/h (0 Bft)
09/06/2023 21:00 21,0 C 88 % 1011,8 hPa 0,0 mm 0,0 km/h (0 Bft) N 0,00 h 0,025 mm 6 W/m 18,9 C 21,0 C 0,0 km/h (0 Bft)
09/06/2023 22:00 20,2 C 90 % 1012,3 hPa 0,0 mm 0,0 km/h (0 Bft) N 0,00 h 0,000 mm 0 W/m 18,6 C 20,2 C 0,0 km/h (0 Bft)
09/06/2023 23:00 19,6 C 92 % 1012,4 hPa 0,0 mm 0,0 km/h (0 Bft) N 0,00 h 0,000 mm 0 W/m 18,3 C 19,6 C 0,0 km/h (0 Bft)
10/06/2023 00:00 19,2 C 94 % 1012,4 hPa 0,0 mm 0,0 km/h (0 Bft) N 0,00 h 0,000 mm 0 W/m 18,2 C 19,2 C 0,0 km/h (0 Bft)
10/06/2023 01:00 18,4 C 94 % 1012,1 hPa 0,0 mm 0,0 km/h (0 Bft) N 0,00 h 0,000 mm 0 W/m 17,4 C 18,4 C 0,0 km/h (0 Bft)
10/06/2023 02:00 17,5 C 91 % 1011,7 hPa 0,0 mm 0,0 km/h (0 Bft) N 0,00 h 0,000 mm 0 W/m 16,0 C 17,5 C 0,1 km/h (0 Bft)
10/06/2023 03:00 17,5 C 91 % 1011,2 hPa 0,0 mm 0,0 km/h (0 Bft) N 0,00 h 0,000 mm 0 W/m 16,0 C 17,5 C 0,0 km/h (0 Bft)
10/06/2023 04:00 17,0 C 90 % 1011,0 hPa 0,0 mm 0,0 km/h (0 Bft) N 0,00 h 0,000 mm 0 W/m 15,3 C 17,0 C 0,0 km/h (0 Bft)
10/06/2023 05:00 16,8 C 88 % 1011,0 hPa 0,0 mm 0,0 km/h (0 Bft) N 0,00 h 0,000 mm 9 W/m 14,8 C 16,8 C 0,0 km/h (0 Bft)
10/06/2023 06:00 16,9 C 86 % 1011,0 hPa 0,0 mm 0,0 km/h (0 Bft) N 0,08 h 0,000 mm 22 W/m 14,5 C 16,9 C 0,0 km/h (0 Bft)
10/06/2023 07:00 17,9 C 84 % 1010,9 hPa 0,0 mm 0,0 km/h (0 Bft) N 0,00 h 0,025 mm 66 W/m 15,2 C 17,9 C 0,1 km/h (0 Bft)
10/06/2023 08:00 20,2 C 79 % 1010,9 hPa 0,0 mm 0,0 km/h (0 Bft) E-SE 0,27 h 0,051 mm 186 W/m 16,4 C 20,2 C 0,2 km/h (0 Bft)
10/06/2023 09:00 23,3 C 70 % 1010,8 hPa 0,0 mm 0,5 km/h (0 Bft) E-SE 1,00 h 0,102 mm 516 W/m 17,6 C 23,3 C 1,8 km/h (1 Bft)
10/06/2023 10:00 25,5 C 66 % 1010,7 hPa 0,0 mm 2,6 km/h (1 Bft) E 0,78 h 0,305 mm 625 W/m 18,8 C 25,5 C 6,7 km/h (2 Bft)
10/06/2023 11:00 26,5 C 66 % 1010,8 hPa 0,0 mm 3,4 km/h (1 Bft) E 0,95 h 0,406 mm 845 W/m 19,7 C 26,5 C 9,0 km/h (2 Bft)
10/06/2023 12:00 26,6 C 67 % 1010,7 hPa 0,0 mm 3,0 km/h (1 Bft) E 0,48 h 0,533 mm 532 W/m 19,9 C 26,6 C 9,1 km/h (2 Bft)
10/06/2023 13:00 23,1 C 82 % 1010,8 hPa 0,0 mm 0,9 km/h (0 Bft) S 0,00 h 0,330 mm 85 W/m 19,8 C 23,1 C 2,4 km/h (1 Bft)
10/06/2023 14:00 21,7 C 91 % 1010,6 hPa 0,4 mm 0,0 km/h (0 Bft) N 0,02 h 0,051 mm 126 W/m 20,2 C 21,7 C 0,0 km/h (0 Bft)
10/06/2023 15:00 23,2 C 86 % 1010,3 hPa 0,0 mm 0,6 km/h (0 Bft) SO 0,77 h 0,076 mm 665 W/m 20,8 C 23,2 C 2,3 km/h (1 Bft)
10/06/2023 16:00 24,2 C 80 % 1010,3 hPa 0,0 mm 1,0 km/h (0 Bft) E 0,18 h 0,406 mm 228 W/m 20,5 C 24,2 C 3,6 km/h (1 Bft)
10/06/2023 17:00 22,3 C 88 % 1010,4 hPa 0,2 mm 0,0 km/h (0 Bft) N 0,00 h 0,127 mm 57 W/m 20,1 C 22,3 C 0,0 km/h (0 Bft)
10/06/2023 18:00 22,1 C 91 % 1010,0 hPa 0,0 mm 0,0 km/h (0 Bft) N 0,03 h 0,025 mm 146 W/m 20,5 C 22,1 C 0,1 km/h (0 Bft)
10/06/2023 19:00 21,8 C 90 % 1010,2 hPa 0,0 mm 0,0 km/h (0 Bft) N 0,00 h 0,076 mm 68 W/m 20,1 C 21,8 C 0,0 km/h (0 Bft)
10/06/2023 20:00 21,3 C 90 % 1010,1 hPa 0,0 mm 0,0 km/h (0 Bft) N 0,25 h 0,051 mm 30 W/m 19,7 C 21,3 C 0,0 km/h (0 Bft)
10/06/2023 21:00 21,0 C 91 % 1010,1 hPa 0,0 mm 0,0 km/h (0 Bft) N 0,03 h 0,025 mm 13 W/m 19,4 C 21,0 C 0,0 km/h (0 Bft)
10/06/2023 22:00 20,3 C 92 % 1010,6 hPa 0,0 mm 0,0 km/h (0 Bft) N 0,00 h 0,000 mm 0 W/m 18,9 C 20,3 C 0,0 km/h (0 Bft)
10/06/2023 23:00 19,8 C 93 % 1011,0 hPa 0,0 mm 0,0 km/h (0 Bft) N 0,00 h 0,000 mm 0 W/m 18,7 C 19,8 C 0,0 km/h (0 Bft)
11/06/2023 00:00 19,7 C 95 % 1011,2 hPa 0,0 mm 0,0 km/h (0 Bft) N 0,00 h 0,000 mm 0 W/m 18,9 C 19,7 C 0,0 km/h (0 Bft)
11/06/2023 01:00 19,4 C 95 % 1010,9 hPa 0,0 mm 0,0 km/h (0 Bft) N 0,00 h 0,000 mm 0 W/m 18,6 C 19,4 C 0,0 km/h (0 Bft)
11/06/2023 02:00 18,6 C 95 % 1010,9 hPa 0,0 mm 0,0 km/h (0 Bft) N 0,00 h 0,000 mm 0 W/m 17,8 C 18,6 C 0,0 km/h (0 Bft)
11/06/2023 03:00 17,8 C 95 % 1010,8 hPa 0,0 mm 0,0 km/h (0 Bft) N 0,00 h 0,000 mm 0 W/m 17,0 C 17,8 C 0,0 km/h (0 Bft)
11/06/2023 04:00 17,2 C 95 % 1010,8 hPa 0,0 mm 0,0 km/h (0 Bft) N 0,00 h 0,000 mm 0 W/m 16,5 C 17,2 C 0,0 km/h (0 Bft)
11/06/2023 05:00 16,6 C 96 % 1010,9 hPa 0,0 mm 0,0 km/h (0 Bft) N 0,00 h 0,000 mm 5 W/m 15,9 C 16,6 C 0,0 km/h (0 Bft)
11/06/2023 06:00 16,4 C 96 % 1011,0 hPa 0,0 mm 0,0 km/h (0 Bft) N 0,00 h 0,000 mm 16 W/m 15,7 C 16,4 C 0,0 km/h (0 Bft)
11/06/2023 07:00 17,1 C 97 % 1011,0 hPa 0,0 mm 0,0 km/h (0 Bft) N 0,00 h 0,000 mm 32 W/m 16,5 C 17,1 C 0,0 km/h (0 Bft)
11/06/2023 08:00 19,2 C 91 % 1011,3 hPa 0,0 mm 0,0 km/h (0 Bft) N 0,25 h 0,025 mm 146 W/m 17,7 C 19,2 C 0,0 km/h (0 Bft)
11/06/2023 09:00 23,6 C 75 % 1011,3 hPa 0,0 mm 0,1 km/h (0 Bft) E 1,00 h 0,076 mm 506 W/m 18,8 C 23,6 C 0,2 km/h (0 Bft)
11/06/2023 10:00 26,9 C 61 % 1011,1 hPa 0,0 mm 1,0 km/h (0 Bft) E 1,00 h 0,305 mm 659 W/m 18,7 C 26,9 C 3,3 km/h (1 Bft)
11/06/2023 11:00 28,4 C 58 % 1011,1 hPa 0,0 mm 2,9 km/h (1 Bft) E 1,00 h 0,432 mm 782 W/m 19,2 C 28,4 C 7,4 km/h (2 Bft)
11/06/2023 12:00 28,4 C 58 % 1011,1 hPa 0,0 mm 3,7 km/h (1 Bft) E 1,00 h 0,533 mm 860 W/m 19,5 C 28,4 C 8,1 km/h (2 Bft)
11/06/2023 13:00 28,3 C 60 % 1011,2 hPa 0,0 mm 4,3 km/h (1 Bft) E 1,00 h 0,584 mm 887 W/m 19,7 C 28,3 C 8,9 km/h (2 Bft)
11/06/2023 14:00 28,3 C 60 % 1011,0 hPa 0,0 mm 4,5 km/h (1 Bft) E 1,00 h 0,610 mm 873 W/m 19,7 C 28,3 C 10,5 km/h (2 Bft)
11/06/2023 15:00 27,8 C 61 % 1011,1 hPa 0,0 mm 4,7 km/h (1 Bft) E 1,00 h 0,610 mm 854 W/m 19,5 C 27,8 C 10,4 km/h (2 Bft)
11/06/2023 16:00 27,0 C 65 % 1011,2 hPa 0,0 mm 0,2 km/h (0 Bft) N-NE 0,18 h 0,584 mm 299 W/m 19,8 C 27,0 C 1,3 km/h (1 Bft)
11/06/2023 17:00 24,6 C 76 % 1011,0 hPa 0,0 mm 0,0 km/h (0 Bft) N 0,00 h 0,203 mm 83 W/m 20,0 C 24,6 C 0,0 km/h (0 Bft)
11/06/2023 18:00 23,5 C 80 % 1010,8 hPa 0,0 mm 0,0 km/h (0 Bft) N 0,00 h 0,051 mm 41 W/m 19,9 C 23,5 C 0,0 km/h (0 Bft)
11/06/2023 19:00 22,9 C 82 % 1010,7 hPa 0,0 mm 0,0 km/h (0 Bft) N 0,00 h 0,025 mm 28 W/m 19,7 C 22,9 C 0,0 km/h (0 Bft)
11/06/2023 20:00 22,5 C 84 % 1010,6 hPa 0,0 mm 0,0 km/h (0 Bft) N 0,00 h 0,025 mm 12 W/m 19,8 C 22,5 C 0,0 km/h (0 Bft)
11/06/2023 21:00 21,7 C 86 % 1010,5 hPa 0,0 mm 0,0 km/h (0 Bft) N 0,00 h 0,000 mm 0 W/m 19,3 C 21,7 C 0,0 km/h (0 Bft)
11/06/2023 22:00 21,2 C 87 % 1010,9 hPa 0,0 mm 0,0 km/h (0 Bft) N 0,00 h 0,000 mm 0 W/m 19,0 C 21,2 C 0,1 km/h (0 Bft)
11/06/2023 23:00 21,0 C 87 % 1011,2 hPa 0,0 mm 0,0 km/h (0 Bft) N 0,00 h 0,025 mm 0 W/m 18,8 C 21,0 C 0,0 km/h (0 Bft)
Min-Date _ 06/06/23 06/06/23 10/06/23 - 05/06/23 - - - - 06/06/23 06/06/23 05/06/23
_ Min-Heure 05:17 13:19 18:45 - 00:00 - - - - 05:38 05:17 00:00
Minimum _ 14,4 C 52 % 1009,9 hPa - 0,0 km/h (0 Bft) - - - - 13,3 C 14,4 C 0,0 km/h (0 Bft)
Max-Date _ 11/06/23 11/06/23 07/06/23 10/06/23 06/06/23 - 05/06/23 06/06/23 05/06/23 10/06/23 11/06/23 05/06/23
_ Max-Heure 13:08 06:59 09:30 14:07 13:49 - 11:17 14:00 13:37 15:19 13:08 14:21
Maximum _ 28,9 C 97 % 1016,3 hPa 0,4 mm 12,9 km/h
S (3 Bft)
- 0,02 h 0,610 mm 1255 W/m 21,3 C 28,9 C 20,9 km/h
E (4 Bft)
Moyenne _ 20,9 C 82 % 1012,9 hPa #0,8 mm 0,7 km/h (0 Bft) E #35:08 h #22,929 mm 304 W/m 17,5 C 20,9 C 2,0 km/h (1 Bft)
Roquefort les pins